Terminal Aerodrome Forecast
Issued by NWS

Home | Current Version | Previous Version | Text Only | Print | Product List | Glossary On
Versions: 1 2 3 4 5 6 7 8 9 10 11 12 13 14 15
000
FTUS44 KEWX 180100 AAA
TAFSSF
TAF AMD
KSSF 180113Z 1801/1824 07006KT 4SM -DZ BR BKN006 BKN011 OVC019
     FM180800 03004KT 4SM -DZ BR OVC004
     FM181200 04006KT 1SM -DZ BR OVC002
     FM181600 07006KT 4SM BR OVC012
     FM181800 07006KT P6SM BKN035=

USA.gov is the U.S. government's official web portal to all federal, state and local government web resources and services.